sensor_id;sensor_type;location;lat;lon;timestamp;temperature;humidity
37910;DHT22;23741;49.446;8.754;2023-11-21T00:01:57;13.60;72.40
37910;DHT22;23741;49.446;8.754;2023-11-21T00:03:59;13.60;72.40
37910;DHT22;23741;49.446;8.754;2023-11-21T00:06:02;13.60;72.30
37910;DHT22;23741;49.446;8.754;2023-11-21T00:08:03;13.60;72.20
37910;DHT22;23741;49.446;8.754;2023-11-21T00:10:07;13.50;72.10
37910;DHT22;23741;49.446;8.754;2023-11-21T00:12:10;13.60;72.20
37910;DHT22;23741;49.446;8.754;2023-11-21T00:14:11;13.60;72.00
37910;DHT22;23741;49.446;8.754;2023-11-21T00:16:13;13.50;72.00
37910;DHT22;23741;49.446;8.754;2023-11-21T00:18:15;13.50;72.00
37910;DHT22;23741;49.446;8.754;2023-11-21T00:20:18;13.50;72.10
37910;DHT22;23741;49.446;8.754;2023-11-21T00:22:19;13.50;72.10
37910;DHT22;23741;49.446;8.754;2023-11-21T00:24:21;13.50;71.90
37910;DHT22;23741;49.446;8.754;2023-11-21T00:26:23;13.50;71.80
37910;DHT22;23741;49.446;8.754;2023-11-21T00:28:35;13.50;71.90
37910;DHT22;23741;49.446;8.754;2023-11-21T00:30:37;13.50;72.10
37910;DHT22;23741;49.446;8.754;2023-11-21T00:32:38;13.50;72.00
37910;DHT22;23741;49.446;8.754;2023-11-21T00:34:41;13.50;72.10
37910;DHT22;23741;49.446;8.754;2023-11-21T00:36:44;13.50;72.20
37910;DHT22;23741;49.446;8.754;2023-11-21T00:38:46;13.50;72.40
37910;DHT22;23741;49.446;8.754;2023-11-21T00:40:48;13.50;72.10
37910;DHT22;23741;49.446;8.754;2023-11-21T00:42:50;13.50;72.20
37910;DHT22;23741;49.446;8.754;2023-11-21T00:44:52;13.50;72.30
37910;DHT22;23741;49.446;8.754;2023-11-21T00:46:54;13.50;72.50
37910;DHT22;23741;49.446;8.754;2023-11-21T00:48:56;13.50;72.70
37910;DHT22;23741;49.446;8.754;2023-11-21T00:50:58;13.50;72.80
37910;DHT22;23741;49.446;8.754;2023-11-21T00:53:00;13.50;72.50
37910;DHT22;23741;49.446;8.754;2023-11-21T00:55:02;13.50;72.70
37910;DHT22;23741;49.446;8.754;2023-11-21T00:57:05;13.50;72.70
37910;DHT22;23741;49.446;8.754;2023-11-21T00:59:06;13.60;72.80
37910;DHT22;23741;49.446;8.754;2023-11-21T01:01:08;13.50;72.70
37910;DHT22;23741;49.446;8.754;2023-11-21T01:03:10;13.50;72.40
37910;DHT22;23741;49.446;8.754;2023-11-21T01:05:12;13.50;72.20
37910;DHT22;23741;49.446;8.754;2023-11-21T01:07:14;13.50;72.10
37910;DHT22;23741;49.446;8.754;2023-11-21T01:09:16;13.50;72.00
37910;DHT22;23741;49.446;8.754;2023-11-21T01:11:20;13.50;72.10
37910;DHT22;23741;49.446;8.754;2023-11-21T01:13:22;13.50;72.00
37910;DHT22;23741;49.446;8.754;2023-11-21T01:15:24;13.50;72.00
37910;DHT22;23741;49.446;8.754;2023-11-21T01:17:27;13.50;72.10
37910;DHT22;23741;49.446;8.754;2023-11-21T01:19:29;13.40;72.10
37910;DHT22;23741;49.446;8.754;2023-11-21T01:21:31;13.40;72.10
37910;DHT22;23741;49.446;8.754;2023-11-21T01:23:33;13.40;72.10
37910;DHT22;23741;49.446;8.754;2023-11-21T01:25:35;13.40;72.20
37910;DHT22;23741;49.446;8.754;2023-11-21T01:27:37;13.40;72.30
37910;DHT22;23741;49.446;8.754;2023-11-21T01:29:39;13.40;72.40
37910;DHT22;23741;49.446;8.754;2023-11-21T01:31:41;13.40;73.20
37910;DHT22;23741;49.446;8.754;2023-11-21T01:33:43;13.40;72.50
37910;DHT22;23741;49.446;8.754;2023-11-21T01:35:45;13.40;72.60
37910;DHT22;23741;49.446;8.754;2023-11-21T01:37:48;13.40;72.60
37910;DHT22;23741;49.446;8.754;2023-11-21T01:39:50;13.40;72.80
37910;DHT22;23741;49.446;8.754;2023-11-21T01:41:51;13.40;72.70
37910;DHT22;23741;49.446;8.754;2023-11-21T01:43:54;13.40;72.80
37910;DHT22;23741;49.446;8.754;2023-11-21T01:45:56;13.40;72.80
37910;DHT22;23741;49.446;8.754;2023-11-21T01:48:01;13.40;72.60
37910;DHT22;23741;49.446;8.754;2023-11-21T01:50:04;13.40;72.80
37910;DHT22;23741;49.446;8.754;2023-11-21T01:52:08;13.50;72.90
37910;DHT22;23741;49.446;8.754;2023-11-21T01:54:09;13.50;73.20
37910;DHT22;23741;49.446;8.754;2023-11-21T01:56:18;13.50;72.90
37910;DHT22;23741;49.446;8.754;2023-11-21T01:58:20;13.50;72.70
37910;DHT22;23741;49.446;8.754;2023-11-21T02:00:23;13.50;72.40
37910;DHT22;23741;49.446;8.754;2023-11-21T02:02:25;13.50;72.40
37910;DHT22;23741;49.446;8.754;2023-11-21T02:04:27;13.50;72.40
37910;DHT22;23741;49.446;8.754;2023-11-21T02:06:30;13.50;72.70
37910;DHT22;23741;49.446;8.754;2023-11-21T02:08:32;13.40;72.90
37910;DHT22;23741;49.446;8.754;2023-11-21T02:10:34;13.50;73.00
37910;DHT22;23741;49.446;8.754;2023-11-21T02:12:38;13.50;73.00
37910;DHT22;23741;49.446;8.754;2023-11-21T02:14:40;13.50;72.90
37910;DHT22;23741;49.446;8.754;2023-11-21T02:16:42;13.50;73.00
37910;DHT22;23741;49.446;8.754;2023-11-21T02:18:49;13.50;72.90
37910;DHT22;23741;49.446;8.754;2023-11-21T02:20:51;13.50;72.90
37910;DHT22;23741;49.446;8.754;2023-11-21T02:22:53;13.50;73.10
37910;DHT22;23741;49.446;8.754;2023-11-21T02:25:00;13.50;72.90
37910;DHT22;23741;49.446;8.754;2023-11-21T02:27:02;13.50;72.80
37910;DHT22;23741;49.446;8.754;2023-11-21T02:29:04;13.50;72.90
37910;DHT22;23741;49.446;8.754;2023-11-21T02:31:06;13.50;72.90
37910;DHT22;23741;49.446;8.754;2023-11-21T02:33:09;13.50;72.80
37910;DHT22;23741;49.446;8.754;2023-11-21T02:35:11;13.50;72.50
37910;DHT22;23741;49.446;8.754;2023-11-21T02:37:13;13.50;72.60
37910;DHT22;23741;49.446;8.754;2023-11-21T02:39:15;13.50;72.80
37910;DHT22;23741;49.446;8.754;2023-11-21T02:41:18;13.50;72.90
37910;DHT22;23741;49.446;8.754;2023-11-21T02:43:19;13.50;73.10
37910;DHT22;23741;49.446;8.754;2023-11-21T02:45:21;13.50;73.10
37910;DHT22;23741;49.446;8.754;2023-11-21T02:47:25;13.50;73.20
37910;DHT22;23741;49.446;8.754;2023-11-21T02:49:27;13.50;73.20
37910;DHT22;23741;49.446;8.754;2023-11-21T02:51:33;13.50;73.10
37910;DHT22;23741;49.446;8.754;2023-11-21T02:53:34;13.50;73.10
37910;DHT22;23741;49.446;8.754;2023-11-21T02:55:36;13.50;73.10
37910;DHT22;23741;49.446;8.754;2023-11-21T02:57:38;13.50;73.30
37910;DHT22;23741;49.446;8.754;2023-11-21T02:59:40;13.50;73.10
37910;DHT22;23741;49.446;8.754;2023-11-21T03:01:42;13.50;73.20
37910;DHT22;23741;49.446;8.754;2023-11-21T03:03:43;13.60;73.20
37910;DHT22;23741;49.446;8.754;2023-11-21T03:05:45;13.60;73.30
37910;DHT22;23741;49.446;8.754;2023-11-21T03:07:47;13.60;73.20
37910;DHT22;23741;49.446;8.754;2023-11-21T03:09:49;13.60;73.30
37910;DHT22;23741;49.446;8.754;2023-11-21T03:11:51;13.60;73.10
37910;DHT22;23741;49.446;8.754;2023-11-21T03:13:53;13.60;73.10
37910;DHT22;23741;49.446;8.754;2023-11-21T03:15:54;13.60;73.00
37910;DHT22;23741;49.446;8.754;2023-11-21T03:17:57;13.60;73.00
37910;DHT22;23741;49.446;8.754;2023-11-21T03:19:59;13.60;72.90
37910;DHT22;23741;49.446;8.754;2023-11-21T03:22:01;13.60;72.90
37910;DHT22;23741;49.446;8.754;2023-11-21T03:24:03;13.60;72.80
37910;DHT22;23741;49.446;8.754;2023-11-21T03:26:05;13.60;72.90
37910;DHT22;23741;49.446;8.754;2023-11-21T03:28:10;13.60;72.90
37910;DHT22;23741;49.446;8.754;2023-11-21T03:30:11;13.50;72.80
37910;DHT22;23741;49.446;8.754;2023-11-21T03:32:13;13.50;72.90
37910;DHT22;23741;49.446;8.754;2023-11-21T03:34:19;13.60;73.10
37910;DHT22;23741;49.446;8.754;2023-11-21T03:36:21;13.60;73.20
37910;DHT22;23741;49.446;8.754;2023-11-21T03:38:23;13.60;73.20
37910;DHT22;23741;49.446;8.754;2023-11-21T03:40:25;13.60;73.10
37910;DHT22;23741;49.446;8.754;2023-11-21T03:42:27;13.60;73.00
37910;DHT22;23741;49.446;8.754;2023-11-21T03:44:28;13.60;73.10
37910;DHT22;23741;49.446;8.754;2023-11-21T03:46:30;13.60;73.20
37910;DHT22;23741;49.446;8.754;2023-11-21T03:48:32;13.60;73.40
37910;DHT22;23741;49.446;8.754;2023-11-21T03:50:35;13.60;73.20
37910;DHT22;23741;49.446;8.754;2023-11-21T03:52:36;13.70;73.20
37910;DHT22;23741;49.446;8.754;2023-11-21T03:54:38;13.60;73.00
37910;DHT22;23741;49.446;8.754;2023-11-21T03:56:40;13.60;73.00
37910;DHT22;23741;49.446;8.754;2023-11-21T03:58:42;13.60;73.20
37910;DHT22;23741;49.446;8.754;2023-11-21T04:00:44;13.60;73.40
37910;DHT22;23741;49.446;8.754;2023-11-21T04:02:46;13.70;73.40
37910;DHT22;23741;49.446;8.754;2023-11-21T04:04:47;13.70;73.40
37910;DHT22;23741;49.446;8.754;2023-11-21T04:06:49;13.70;73.40
37910;DHT22;23741;49.446;8.754;2023-11-21T04:08:53;13.70;73.40
37910;DHT22;23741;49.446;8.754;2023-11-21T04:10:55;13.70;73.40
37910;DHT22;23741;49.446;8.754;2023-11-21T04:12:57;13.70;73.30
37910;DHT22;23741;49.446;8.754;2023-11-21T04:14:58;13.70;73.30
37910;DHT22;23741;49.446;8.754;2023-11-21T04:17:00;13.70;73.30
37910;DHT22;23741;49.446;8.754;2023-11-21T04:19:02;13.70;73.40
37910;DHT22;23741;49.446;8.754;2023-11-21T04:21:04;13.70;73.30
37910;DHT22;23741;49.446;8.754;2023-11-21T04:23:06;13.70;73.20
37910;DHT22;23741;49.446;8.754;2023-11-21T04:25:08;13.70;73.30
37910;DHT22;23741;49.446;8.754;2023-11-21T04:27:11;13.70;73.30
37910;DHT22;23741;49.446;8.754;2023-11-21T04:29:13;13.80;73.20
37910;DHT22;23741;49.446;8.754;2023-11-21T04:31:14;13.70;73.00
37910;DHT22;23741;49.446;8.754;2023-11-21T04:33:16;13.80;73.20
37910;DHT22;23741;49.446;8.754;2023-11-21T04:35:18;13.80;73.20
37910;DHT22;23741;49.446;8.754;2023-11-21T04:37:20;13.80;73.10
37910;DHT22;23741;49.446;8.754;2023-11-21T04:39:22;13.80;73.10
37910;DHT22;23741;49.446;8.754;2023-11-21T04:41:23;13.80;73.20
37910;DHT22;23741;49.446;8.754;2023-11-21T04:43:25;13.80;73.10
37910;DHT22;23741;49.446;8.754;2023-11-21T04:45:27;13.80;73.10
37910;DHT22;23741;49.446;8.754;2023-11-21T04:47:29;13.80;73.20
37910;DHT22;23741;49.446;8.754;2023-11-21T04:49:30;13.80;73.20
37910;DHT22;23741;49.446;8.754;2023-11-21T04:51:32;13.80;73.20
37910;DHT22;23741;49.446;8.754;2023-11-21T04:53:34;13.80;73.20
37910;DHT22;23741;49.446;8.754;2023-11-21T04:55:36;13.90;73.40
37910;DHT22;23741;49.446;8.754;2023-11-21T04:57:38;13.90;73.40
37910;DHT22;23741;49.446;8.754;2023-11-21T04:59:42;13.80;73.30
37910;DHT22;23741;49.446;8.754;2023-11-21T05:01:44;13.80;73.40
37910;DHT22;23741;49.446;8.754;2023-11-21T05:03:46;13.80;73.20
37910;DHT22;23741;49.446;8.754;2023-11-21T05:05:49;13.90;73.20
37910;DHT22;23741;49.446;8.754;2023-11-21T05:07:50;13.80;73.10
37910;DHT22;23741;49.446;8.754;2023-11-21T05:09:54;13.90;73.20
37910;DHT22;23741;49.446;8.754;2023-11-21T05:11:55;13.80;73.20
37910;DHT22;23741;49.446;8.754;2023-11-21T05:13:57;13.90;73.20
37910;DHT22;23741;49.446;8.754;2023-11-21T05:16:00;13.80;73.10
37910;DHT22;23741;49.446;8.754;2023-11-21T05:18:01;13.80;73.10
37910;DHT22;23741;49.446;8.754;2023-11-21T05:20:03;13.90;73.20
37910;DHT22;23741;49.446;8.754;2023-11-21T05:22:09;13.90;73.20
37910;DHT22;23741;49.446;8.754;2023-11-21T05:24:13;13.90;73.20
37910;DHT22;23741;49.446;8.754;2023-11-21T05:26:14;13.90;73.20
37910;DHT22;23741;49.446;8.754;2023-11-21T05:28:16;13.90;73.30
37910;DHT22;23741;49.446;8.754;2023-11-21T05:30:18;13.90;73.30
37910;DHT22;23741;49.446;8.754;2023-11-21T05:32:20;13.90;73.30
37910;DHT22;23741;49.446;8.754;2023-11-21T05:34:21;13.90;73.20
37910;DHT22;23741;49.446;8.754;2023-11-21T05:36:25;13.90;73.20
37910;DHT22;23741;49.446;8.754;2023-11-21T05:38:27;13.90;73.20
37910;DHT22;23741;49.446;8.754;2023-11-21T05:40:28;13.90;73.20
37910;DHT22;23741;49.446;8.754;2023-11-21T05:42:34;13.90;73.30
37910;DHT22;23741;49.446;8.754;2023-11-21T05:44:40;13.90;73.20
37910;DHT22;23741;49.446;8.754;2023-11-21T05:46:42;13.90;73.20
37910;DHT22;23741;49.446;8.754;2023-11-21T05:48:45;14.00;73.40
37910;DHT22;23741;49.446;8.754;2023-11-21T05:50:47;13.90;73.30
37910;DHT22;23741;49.446;8.754;2023-11-21T05:52:51;14.00;73.30
37910;DHT22;23741;49.446;8.754;2023-11-21T05:54:53;14.00;73.20
37910;DHT22;23741;49.446;8.754;2023-11-21T05:56:54;14.00;73.20
37910;DHT22;23741;49.446;8.754;2023-11-21T05:58:56;14.00;73.20
37910;DHT22;23741;49.446;8.754;2023-11-21T06:00:58;14.00;73.10
37910;DHT22;23741;49.446;8.754;2023-11-21T06:03:00;14.00;73.10
37910;DHT22;23741;49.446;8.754;2023-11-21T06:05:02;14.00;73.10
37910;DHT22;23741;49.446;8.754;2023-11-21T06:07:05;14.00;73.10
37910;DHT22;23741;49.446;8.754;2023-11-21T06:09:08;14.00;73.10
37910;DHT22;23741;49.446;8.754;2023-11-21T06:11:10;14.00;73.20
37910;DHT22;23741;49.446;8.754;2023-11-21T06:13:13;14.00;73.20
37910;DHT22;23741;49.446;8.754;2023-11-21T06:15:15;14.00;73.20
37910;DHT22;23741;49.446;8.754;2023-11-21T06:17:20;14.10;73.20
37910;DHT22;23741;49.446;8.754;2023-11-21T06:19:22;14.00;73.10
37910;DHT22;23741;49.446;8.754;2023-11-21T06:21:24;14.00;73.10
37910;DHT22;23741;49.446;8.754;2023-11-21T06:23:26;14.00;73.10
37910;DHT22;23741;49.446;8.754;2023-11-21T06:25:28;14.00;73.20
37910;DHT22;23741;49.446;8.754;2023-11-21T06:27:31;14.00;73.10
37910;DHT22;23741;49.446;8.754;2023-11-21T06:29:32;14.00;73.10
37910;DHT22;23741;49.446;8.754;2023-11-21T06:31:34;14.00;73.10
37910;DHT22;23741;49.446;8.754;2023-11-21T06:33:36;14.00;73.10
37910;DHT22;23741;49.446;8.754;2023-11-21T06:35:38;14.00;73.10
37910;DHT22;23741;49.446;8.754;2023-11-21T06:37:40;14.00;73.10
37910;DHT22;23741;49.446;8.754;2023-11-21T06:39:42;14.00;73.10
37910;DHT22;23741;49.446;8.754;2023-11-21T06:41:43;14.00;73.00
37910;DHT22;23741;49.446;8.754;2023-11-21T06:43:45;14.00;73.00
37910;DHT22;23741;49.446;8.754;2023-11-21T06:45:48;14.00;73.00
37910;DHT22;23741;49.446;8.754;2023-11-21T06:47:50;14.00;73.00
37910;DHT22;23741;49.446;8.754;2023-11-21T06:49:53;14.10;73.10
37910;DHT22;23741;49.446;8.754;2023-11-21T06:51:54;14.00;73.00
37910;DHT22;23741;49.446;8.754;2023-11-21T06:53:57;14.00;73.20
37910;DHT22;23741;49.446;8.754;2023-11-21T06:55:59;14.00;73.20
37910;DHT22;23741;49.446;8.754;2023-11-21T06:58:00;14.00;73.20
37910;DHT22;23741;49.446;8.754;2023-11-21T07:00:02;14.00;73.10
37910;DHT22;23741;49.446;8.754;2023-11-21T07:02:04;14.00;73.10
37910;DHT22;23741;49.446;8.754;2023-11-21T07:04:09;14.00;73.20
37910;DHT22;23741;49.446;8.754;2023-11-21T07:06:11;14.00;73.20
37910;DHT22;23741;49.446;8.754;2023-11-21T07:08:13;14.10;73.20
37910;DHT22;23741;49.446;8.754;2023-11-21T07:10:15;14.10;73.20
37910;DHT22;23741;49.446;8.754;2023-11-21T07:12:18;14.00;73.10
37910;DHT22;23741;49.446;8.754;2023-11-21T07:14:20;14.10;73.20
37910;DHT22;23741;49.446;8.754;2023-11-21T07:16:22;14.00;73.10
37910;DHT22;23741;49.446;8.754;2023-11-21T07:18:25;14.10;73.20
37910;DHT22;23741;49.446;8.754;2023-11-21T07:20:27;14.00;73.10
37910;DHT22;23741;49.446;8.754;2023-11-21T07:22:29;14.00;73.20
37910;DHT22;23741;49.446;8.754;2023-11-21T07:24:32;14.00;73.20
37910;DHT22;23741;49.446;8.754;2023-11-21T07:26:34;14.10;73.20
37910;DHT22;23741;49.446;8.754;2023-11-21T07:28:36;14.00;73.20
37910;DHT22;23741;49.446;8.754;2023-11-21T07:30:38;14.10;73.40
37910;DHT22;23741;49.446;8.754;2023-11-21T07:32:39;14.10;73.20
37910;DHT22;23741;49.446;8.754;2023-11-21T07:34:42;14.00;73.20
37910;DHT22;23741;49.446;8.754;2023-11-21T07:36:44;14.10;73.20
37910;DHT22;23741;49.446;8.754;2023-11-21T07:38:46;14.10;73.20
37910;DHT22;23741;49.446;8.754;2023-11-21T07:40:48;14.10;73.30
37910;DHT22;23741;49.446;8.754;2023-11-21T07:42:49;14.10;73.50
37910;DHT22;23741;49.446;8.754;2023-11-21T07:44:52;14.10;73.50
37910;DHT22;23741;49.446;8.754;2023-11-21T07:46:54;14.10;73.50
37910;DHT22;23741;49.446;8.754;2023-11-21T07:48:58;14.20;73.50
37910;DHT22;23741;49.446;8.754;2023-11-21T07:51:01;14.10;73.40
37910;DHT22;23741;49.446;8.754;2023-11-21T07:53:05;14.10;73.40
37910;DHT22;23741;49.446;8.754;2023-11-21T07:55:07;14.20;73.50
37910;DHT22;23741;49.446;8.754;2023-11-21T07:57:09;14.10;73.40
37910;DHT22;23741;49.446;8.754;2023-11-21T07:59:15;14.10;73.40
37910;DHT22;23741;49.446;8.754;2023-11-21T08:01:16;14.10;73.40
37910;DHT22;23741;49.446;8.754;2023-11-21T08:03:19;14.10;73.50
37910;DHT22;23741;49.446;8.754;2023-11-21T08:05:21;14.20;73.60
37910;DHT22;23741;49.446;8.754;2023-11-21T08:07:33;14.20;73.60
37910;DHT22;23741;49.446;8.754;2023-11-21T08:09:35;14.20;73.50
37910;DHT22;23741;49.446;8.754;2023-11-21T08:11:37;14.20;73.50
37910;DHT22;23741;49.446;8.754;2023-11-21T08:13:41;14.20;73.60
37910;DHT22;23741;49.446;8.754;2023-11-21T08:15:43;14.20;73.70
37910;DHT22;23741;49.446;8.754;2023-11-21T08:17:47;14.20;73.60
37910;DHT22;23741;49.446;8.754;2023-11-21T08:19:50;14.20;73.60
37910;DHT22;23741;49.446;8.754;2023-11-21T08:21:53;14.30;73.60
37910;DHT22;23741;49.446;8.754;2023-11-21T08:23:56;14.20;73.50
37910;DHT22;23741;49.446;8.754;2023-11-21T08:25:58;14.20;73.60
37910;DHT22;23741;49.446;8.754;2023-11-21T08:28:00;14.30;73.60
37910;DHT22;23741;49.446;8.754;2023-11-21T08:30:03;14.30;73.60
37910;DHT22;23741;49.446;8.754;2023-11-21T08:32:05;14.30;73.70
37910;DHT22;23741;49.446;8.754;2023-11-21T08:34:07;14.30;73.80
37910;DHT22;23741;49.446;8.754;2023-11-21T08:36:09;14.30;73.70
37910;DHT22;23741;49.446;8.754;2023-11-21T08:38:11;14.30;73.80
37910;DHT22;23741;49.446;8.754;2023-11-21T08:40:13;14.40;73.90
37910;DHT22;23741;49.446;8.754;2023-11-21T08:42:18;14.40;73.90
37910;DHT22;23741;49.446;8.754;2023-11-21T08:44:20;14.40;73.80
37910;DHT22;23741;49.446;8.754;2023-11-21T08:46:23;14.50;74.10
37910;DHT22;23741;49.446;8.754;2023-11-21T08:48:27;14.40;74.10
37910;DHT22;23741;49.446;8.754;2023-11-21T08:50:31;14.50;74.00
37910;DHT22;23741;49.446;8.754;2023-11-21T08:52:35;14.50;74.00
37910;DHT22;23741;49.446;8.754;2023-11-21T08:54:39;14.50;74.00
37910;DHT22;23741;49.446;8.754;2023-11-21T08:56:41;14.50;73.80
37910;DHT22;23741;49.446;8.754;2023-11-21T08:58:44;14.60;73.70
37910;DHT22;23741;49.446;8.754;2023-11-21T09:00:46;14.60;73.50
37910;DHT22;23741;49.446;8.754;2023-11-21T09:02:48;14.60;73.50
37910;DHT22;23741;49.446;8.754;2023-11-21T09:04:50;14.60;73.30
37910;DHT22;23741;49.446;8.754;2023-11-21T09:06:54;14.60;73.10
37910;DHT22;23741;49.446;8.754;2023-11-21T09:08:56;14.60;72.80
37910;DHT22;23741;49.446;8.754;2023-11-21T09:10:57;14.60;72.60
37910;DHT22;23741;49.446;8.754;2023-11-21T09:12:59;14.50;72.50
37910;DHT22;23741;49.446;8.754;2023-11-21T09:15:05;14.50;72.60
37910;DHT22;23741;49.446;8.754;2023-11-21T09:17:07;14.50;72.70
37910;DHT22;23741;49.446;8.754;2023-11-21T09:19:12;14.50;72.90
37910;DHT22;23741;49.446;8.754;2023-11-21T09:21:15;14.50;73.00
37910;DHT22;23741;49.446;8.754;2023-11-21T09:23:17;14.50;73.10
37910;DHT22;23741;49.446;8.754;2023-11-21T09:25:19;14.50;73.00
37910;DHT22;23741;49.446;8.754;2023-11-21T09:27:22;14.50;73.00
37910;DHT22;23741;49.446;8.754;2023-11-21T09:29:24;14.50;73.10
37910;DHT22;23741;49.446;8.754;2023-11-21T09:31:26;14.50;73.00
37910;DHT22;23741;49.446;8.754;2023-11-21T09:33:29;14.50;73.00
37910;DHT22;23741;49.446;8.754;2023-11-21T09:35:32;14.50;73.10
37910;DHT22;23741;49.446;8.754;2023-11-21T09:37:34;14.50;73.10
37910;DHT22;23741;49.446;8.754;2023-11-21T09:39:37;14.60;73.30
37910;DHT22;23741;49.446;8.754;2023-11-21T09:41:43;14.60;73.30
37910;DHT22;23741;49.446;8.754;2023-11-21T09:43:46;14.60;73.30
37910;DHT22;23741;49.446;8.754;2023-11-21T09:45:50;14.60;73.30
37910;DHT22;23741;49.446;8.754;2023-11-21T09:47:56;14.60;73.40
37910;DHT22;23741;49.446;8.754;2023-11-21T09:49:58;14.60;73.10
37910;DHT22;23741;49.446;8.754;2023-11-21T09:52:02;14.60;73.00
37910;DHT22;23741;49.446;8.754;2023-11-21T09:54:04;14.60;73.00
37910;DHT22;23741;49.446;8.754;2023-11-21T09:56:11;14.70;73.10
37910;DHT22;23741;49.446;8.754;2023-11-21T09:58:13;14.70;73.20
37910;DHT22;23741;49.446;8.754;2023-11-21T10:00:15;14.70;73.20
37910;DHT22;23741;49.446;8.754;2023-11-21T10:02:19;14.70;73.40
37910;DHT22;23741;49.446;8.754;2023-11-21T10:04:22;14.70;73.40
37910;DHT22;23741;49.446;8.754;2023-11-21T10:06:24;14.70;73.30
37910;DHT22;23741;49.446;8.754;2023-11-21T10:08:27;14.70;73.30
37910;DHT22;23741;49.446;8.754;2023-11-21T10:10:48;14.80;73.40
37910;DHT22;23741;49.446;8.754;2023-11-21T10:12:51;14.80;73.30
37910;DHT22;23741;49.446;8.754;2023-11-21T10:14:57;14.80;73.30
37910;DHT22;23741;49.446;8.754;2023-11-21T10:16:59;14.80;73.30
37910;DHT22;23741;49.446;8.754;2023-11-21T10:19:02;14.80;73.20
37910;DHT22;23741;49.446;8.754;2023-11-21T10:21:12;14.80;73.20
37910;DHT22;23741;49.446;8.754;2023-11-21T10:23:14;14.80;73.00
37910;DHT22;23741;49.446;8.754;2023-11-21T10:25:17;14.80;72.90
37910;DHT22;23741;49.446;8.754;2023-11-21T10:27:22;14.80;72.80
37910;DHT22;23741;49.446;8.754;2023-11-21T10:29:24;14.90;73.70
37910;DHT22;23741;49.446;8.754;2023-11-21T10:31:29;14.90;73.00
37910;DHT22;23741;49.446;8.754;2023-11-21T10:33:32;14.90;72.80
37910;DHT22;23741;49.446;8.754;2023-11-21T10:35:47;14.90;72.90
37910;DHT22;23741;49.446;8.754;2023-11-21T10:37:59;14.90;72.80
37910;DHT22;23741;49.446;8.754;2023-11-21T10:40:01;14.90;72.80
37910;DHT22;23741;49.446;8.754;2023-11-21T10:42:03;14.90;72.80
37910;DHT22;23741;49.446;8.754;2023-11-21T10:44:05;14.90;72.70
37910;DHT22;23741;49.446;8.754;2023-11-21T10:46:11;14.90;72.70
37910;DHT22;23741;49.446;8.754;2023-11-21T10:48:14;14.90;72.80
37910;DHT22;23741;49.446;8.754;2023-11-21T10:50:19;14.90;72.40
37910;DHT22;23741;49.446;8.754;2023-11-21T10:52:22;14.90;72.30
37910;DHT22;23741;49.446;8.754;2023-11-21T10:54:28;14.90;72.30
37910;DHT22;23741;49.446;8.754;2023-11-21T10:56:29;14.90;72.30
37910;DHT22;23741;49.446;8.754;2023-11-21T10:58:31;14.90;72.30
37910;DHT22;23741;49.446;8.754;2023-11-21T11:00:34;14.90;72.30
37910;DHT22;23741;49.446;8.754;2023-11-21T11:02:36;15.00;72.50
37910;DHT22;23741;49.446;8.754;2023-11-21T11:04:38;15.00;72.60
37910;DHT22;23741;49.446;8.754;2023-11-21T11:06:41;15.00;72.40
37910;DHT22;23741;49.446;8.754;2023-11-21T11:08:43;15.00;72.30
37910;DHT22;23741;49.446;8.754;2023-11-21T11:10:45;15.00;72.30
37910;DHT22;23741;49.446;8.754;2023-11-21T11:12:50;15.00;72.40
37910;DHT22;23741;49.446;8.754;2023-11-21T11:14:54;15.00;72.60
37910;DHT22;23741;49.446;8.754;2023-11-21T11:16:57;15.00;72.50
37910;DHT22;23741;49.446;8.754;2023-11-21T11:19:01;15.00;72.40
37910;DHT22;23741;49.446;8.754;2023-11-21T11:21:07;15.00;72.30
37910;DHT22;23741;49.446;8.754;2023-11-21T11:23:30;15.00;72.20
37910;DHT22;23741;49.446;8.754;2023-11-21T11:25:43;15.00;71.90
37910;DHT22;23741;49.446;8.754;2023-11-21T11:27:54;15.00;72.00
37910;DHT22;23741;49.446;8.754;2023-11-21T11:32:27;15.00;71.70
37910;DHT22;23741;49.446;8.754;2023-11-21T11:34:32;15.00;71.90
37910;DHT22;23741;49.446;8.754;2023-11-21T11:36:37;15.00;72.10
37910;DHT22;23741;49.446;8.754;2023-11-21T11:38:44;15.00;72.10
37910;DHT22;23741;49.446;8.754;2023-11-21T11:40:46;15.00;72.00
37910;DHT22;23741;49.446;8.754;2023-11-21T11:42:55;15.00;71.80
37910;DHT22;23741;49.446;8.754;2023-11-21T11:44:57;15.00;71.80
37910;DHT22;23741;49.446;8.754;2023-11-21T11:46:59;15.00;71.90
37910;DHT22;23741;49.446;8.754;2023-11-21T11:49:07;15.00;71.90
37910;DHT22;23741;49.446;8.754;2023-11-21T11:51:10;15.00;71.80
37910;DHT22;23741;49.446;8.754;2023-11-21T11:53:13;15.00;71.80
37910;DHT22;23741;49.446;8.754;2023-11-21T11:55:16;15.00;71.70
37910;DHT22;23741;49.446;8.754;2023-11-21T11:57:24;15.00;71.80
37910;DHT22;23741;49.446;8.754;2023-11-21T11:59:26;15.00;71.80
37910;DHT22;23741;49.446;8.754;2023-11-21T12:01:28;15.00;72.00
37910;DHT22;23741;49.446;8.754;2023-11-21T12:03:31;15.00;72.00
37910;DHT22;23741;49.446;8.754;2023-11-21T12:05:35;15.00;71.70
37910;DHT22;23741;49.446;8.754;2023-11-21T12:09:48;15.00;71.80
37910;DHT22;23741;49.446;8.754;2023-11-21T12:11:50;15.00;71.90
37910;DHT22;23741;49.446;8.754;2023-11-21T12:13:51;15.10;71.80
37910;DHT22;23741;49.446;8.754;2023-11-21T12:15:54;15.10;72.40
37910;DHT22;23741;49.446;8.754;2023-11-21T12:17:57;15.10;71.50
37910;DHT22;23741;49.446;8.754;2023-11-21T12:20:03;15.10;71.20
37910;DHT22;23741;49.446;8.754;2023-11-21T12:22:15;15.10;71.20
37910;DHT22;23741;49.446;8.754;2023-11-21T12:24:17;15.10;71.30
37910;DHT22;23741;49.446;8.754;2023-11-21T12:26:23;15.10;71.50
37910;DHT22;23741;49.446;8.754;2023-11-21T12:28:26;15.10;71.70
37910;DHT22;23741;49.446;8.754;2023-11-21T12:30:29;15.10;71.60
37910;DHT22;23741;49.446;8.754;2023-11-21T12:32:32;15.20;71.70
37910;DHT22;23741;49.446;8.754;2023-11-21T12:34:34;15.20;71.50
37910;DHT22;23741;49.446;8.754;2023-11-21T12:36:36;15.20;71.30
37910;DHT22;23741;49.446;8.754;2023-11-21T12:38:38;15.20;70.80
37910;DHT22;23741;49.446;8.754;2023-11-21T12:40:40;15.30;70.80
37910;DHT22;23741;49.446;8.754;2023-11-21T12:42:42;15.30;71.20
37910;DHT22;23741;49.446;8.754;2023-11-21T12:44:45;15.30;70.80
37910;DHT22;23741;49.446;8.754;2023-11-21T12:46:49;15.40;71.00
37910;DHT22;23741;49.446;8.754;2023-11-21T12:48:52;15.40;71.20
37910;DHT22;23741;49.446;8.754;2023-11-21T12:50:54;15.40;70.90
37910;DHT22;23741;49.446;8.754;2023-11-21T12:55:02;15.50;71.10
37910;DHT22;23741;49.446;8.754;2023-11-21T12:57:04;15.50;71.00
37910;DHT22;23741;49.446;8.754;2023-11-21T12:59:06;15.50;70.70
37910;DHT22;23741;49.446;8.754;2023-11-21T13:01:08;15.60;70.30
37910;DHT22;23741;49.446;8.754;2023-11-21T13:03:14;15.60;70.30